sensor_id;sensor_type;location;lat;lon;timestamp;temperature;humidity
16327;DHT22;34812;49.846;9.610;2022-10-18T00:00:01;13.30;99.90
16327;DHT22;34812;49.846;9.610;2022-10-18T00:01:04;13.30;99.90
16327;DHT22;34812;49.846;9.610;2022-10-18T00:02:05;13.30;99.90
16327;DHT22;34812;49.846;9.610;2022-10-18T00:03:07;13.30;99.90
16327;DHT22;34812;49.846;9.610;2022-10-18T00:04:08;13.30;99.90
16327;DHT22;34812;49.846;9.610;2022-10-18T00:05:10;13.30;99.90
16327;DHT22;34812;49.846;9.610;2022-10-18T00:06:11;13.20;99.90
16327;DHT22;34812;49.846;9.610;2022-10-18T00:07:13;13.20;99.90
16327;DHT22;34812;49.846;9.610;2022-10-18T00:08:13;13.20;99.90
16327;DHT22;34812;49.846;9.610;2022-10-18T00:09:15;13.20;99.90
16327;DHT22;34812;49.846;9.610;2022-10-18T00:10:16;13.20;99.90
16327;DHT22;34812;49.846;9.610;2022-10-18T00:11:18;13.20;99.90
16327;DHT22;34812;49.846;9.610;2022-10-18T00:12:19;13.10;99.90
16327;DHT22;34812;49.846;9.610;2022-10-18T00:13:21;13.20;99.90
16327;DHT22;34812;49.846;9.610;2022-10-18T00:14:24;13.20;99.90
16327;DHT22;34812;49.846;9.610;2022-10-18T00:15:26;13.20;99.90
16327;DHT22;34812;49.846;9.610;2022-10-18T00:16:27;13.20;99.90
16327;DHT22;34812;49.846;9.610;2022-10-18T00:17:28;13.10;99.90
16327;DHT22;34812;49.846;9.610;2022-10-18T00:18:29;13.10;99.90
16327;DHT22;34812;49.846;9.610;2022-10-18T00:19:31;13.10;99.90
16327;DHT22;34812;49.846;9.610;2022-10-18T00:20:32;13.10;99.90
16327;DHT22;34812;49.846;9.610;2022-10-18T00:21:34;13.10;99.90
16327;DHT22;34812;49.846;9.610;2022-10-18T00:22:36;13.10;99.90
16327;DHT22;34812;49.846;9.610;2022-10-18T00:23:38;13.10;99.90
16327;DHT22;34812;49.846;9.610;2022-10-18T00:24:38;13.10;99.90
16327;DHT22;34812;49.846;9.610;2022-10-18T00:25:40;13.10;99.90
16327;DHT22;34812;49.846;9.610;2022-10-18T00:26:41;13.20;99.90
16327;DHT22;34812;49.846;9.610;2022-10-18T00:27:43;13.20;99.90
16327;DHT22;34812;49.846;9.610;2022-10-18T00:28:44;13.20;99.90
16327;DHT22;34812;49.846;9.610;2022-10-18T00:29:51;13.20;99.90
16327;DHT22;34812;49.846;9.610;2022-10-18T00:30:52;13.20;99.90
16327;DHT22;34812;49.846;9.610;2022-10-18T00:31:53;13.30;99.90
16327;DHT22;34812;49.846;9.610;2022-10-18T00:32:54;13.30;99.90
16327;DHT22;34812;49.846;9.610;2022-10-18T00:33:58;13.30;99.90
16327;DHT22;34812;49.846;9.610;2022-10-18T00:34:59;13.30;99.90
16327;DHT22;34812;49.846;9.610;2022-10-18T00:36:01;13.30;99.90
16327;DHT22;34812;49.846;9.610;2022-10-18T00:37:02;13.30;99.90
16327;DHT22;34812;49.846;9.610;2022-10-18T00:38:03;13.20;99.90
16327;DHT22;34812;49.846;9.610;2022-10-18T00:39:05;13.20;99.90
16327;DHT22;34812;49.846;9.610;2022-10-18T00:40:09;13.20;99.90
16327;DHT22;34812;49.846;9.610;2022-10-18T00:41:12;13.20;99.90
16327;DHT22;34812;49.846;9.610;2022-10-18T00:42:15;13.20;99.90
16327;DHT22;34812;49.846;9.610;2022-10-18T00:43:17;13.30;99.90
16327;DHT22;34812;49.846;9.610;2022-10-18T00:46:14;13.30;99.90
16327;DHT22;34812;49.846;9.610;2022-10-18T00:47:16;13.40;99.90
16327;DHT22;34812;49.846;9.610;2022-10-18T00:48:18;13.30;99.90
16327;DHT22;34812;49.846;9.610;2022-10-18T00:49:24;13.30;99.90
16327;DHT22;34812;49.846;9.610;2022-10-18T00:50:30;13.30;99.90
16327;DHT22;34812;49.846;9.610;2022-10-18T00:51:36;13.40;99.90
16327;DHT22;34812;49.846;9.610;2022-10-18T00:52:40;13.40;99.90
16327;DHT22;34812;49.846;9.610;2022-10-18T00:53:43;13.40;99.90
16327;DHT22;34812;49.846;9.610;2022-10-18T00:54:45;13.40;99.90
16327;DHT22;34812;49.846;9.610;2022-10-18T00:55:48;13.40;99.90
16327;DHT22;34812;49.846;9.610;2022-10-18T00:56:49;13.40;99.90
16327;DHT22;34812;49.846;9.610;2022-10-18T00:57:51;13.40;99.90
16327;DHT22;34812;49.846;9.610;2022-10-18T00:58:53;13.40;99.90
16327;DHT22;34812;49.846;9.610;2022-10-18T00:59:55;13.30;99.90
16327;DHT22;34812;49.846;9.610;2022-10-18T01:00:56;13.40;99.90
16327;DHT22;34812;49.846;9.610;2022-10-18T01:01:59;13.40;99.90
16327;DHT22;34812;49.846;9.610;2022-10-18T01:03:00;13.30;99.90
16327;DHT22;34812;49.846;9.610;2022-10-18T01:04:03;13.40;99.90
16327;DHT22;34812;49.846;9.610;2022-10-18T01:05:04;13.40;99.90
16327;DHT22;34812;49.846;9.610;2022-10-18T01:06:07;13.40;99.90
16327;DHT22;34812;49.846;9.610;2022-10-18T01:07:17;13.40;99.90
16327;DHT22;34812;49.846;9.610;2022-10-18T01:08:42;13.40;99.90
16327;DHT22;34812;49.846;9.610;2022-10-18T01:09:46;13.40;99.90
16327;DHT22;34812;49.846;9.610;2022-10-18T01:10:59;13.40;99.90
16327;DHT22;34812;49.846;9.610;2022-10-18T01:12:11;13.40;99.90
16327;DHT22;34812;49.846;9.610;2022-10-18T01:13:27;13.50;99.90
16327;DHT22;34812;49.846;9.610;2022-10-18T01:14:38;13.50;99.90
16327;DHT22;34812;49.846;9.610;2022-10-18T01:15:52;13.40;99.90
16327;DHT22;34812;49.846;9.610;2022-10-18T01:17:02;13.40;99.90
16327;DHT22;34812;49.846;9.610;2022-10-18T01:18:08;13.40;99.90
16327;DHT22;34812;49.846;9.610;2022-10-18T01:19:20;13.40;99.90
16327;DHT22;34812;49.846;9.610;2022-10-18T01:21:59;13.40;99.90
16327;DHT22;34812;49.846;9.610;2022-10-18T01:23:05;13.30;99.90
16327;DHT22;34812;49.846;9.610;2022-10-18T01:24:44;13.30;99.90
16327;DHT22;34812;49.846;9.610;2022-10-18T01:25:53;13.40;99.90
16327;DHT22;34812;49.846;9.610;2022-10-18T01:27:11;13.40;99.90
16327;DHT22;34812;49.846;9.610;2022-10-18T01:28:28;13.40;99.90
16327;DHT22;34812;49.846;9.610;2022-10-18T01:29:44;13.40;99.90
16327;DHT22;34812;49.846;9.610;2022-10-18T01:30:58;13.40;99.90
16327;DHT22;34812;49.846;9.610;2022-10-18T01:32:03;13.40;99.90
16327;DHT22;34812;49.846;9.610;2022-10-18T01:33:11;13.40;99.90
16327;DHT22;34812;49.846;9.610;2022-10-18T01:34:15;13.40;99.90
16327;DHT22;34812;49.846;9.610;2022-10-18T01:35:20;13.50;99.90
16327;DHT22;34812;49.846;9.610;2022-10-18T01:36:26;13.50;99.90
16327;DHT22;34812;49.846;9.610;2022-10-18T01:37:29;13.50;99.90
16327;DHT22;34812;49.846;9.610;2022-10-18T01:38:32;13.50;99.90
16327;DHT22;34812;49.846;9.610;2022-10-18T01:39:37;13.50;99.90
16327;DHT22;34812;49.846;9.610;2022-10-18T01:40:41;13.60;99.90
16327;DHT22;34812;49.846;9.610;2022-10-18T01:41:44;13.60;99.90
16327;DHT22;34812;49.846;9.610;2022-10-18T01:42:48;13.60;99.90
16327;DHT22;34812;49.846;9.610;2022-10-18T01:43:53;13.50;99.90
16327;DHT22;34812;49.846;9.610;2022-10-18T01:44:55;13.50;99.90
16327;DHT22;34812;49.846;9.610;2022-10-18T01:45:59;13.50;99.90
16327;DHT22;34812;49.846;9.610;2022-10-18T01:47:00;13.50;99.90
16327;DHT22;34812;49.846;9.610;2022-10-18T01:48:03;13.50;99.90
16327;DHT22;34812;49.846;9.610;2022-10-18T01:49:04;13.50;99.90
16327;DHT22;34812;49.846;9.610;2022-10-18T01:50:06;13.50;99.90
16327;DHT22;34812;49.846;9.610;2022-10-18T01:51:08;13.50;99.90
16327;DHT22;34812;49.846;9.610;2022-10-18T01:52:11;13.60;99.90
16327;DHT22;34812;49.846;9.610;2022-10-18T01:53:28;13.50;99.90
16327;DHT22;34812;49.846;9.610;2022-10-18T01:54:33;13.50;99.90
16327;DHT22;34812;49.846;9.610;2022-10-18T01:55:37;13.50;99.90
16327;DHT22;34812;49.846;9.610;2022-10-18T01:56:46;13.50;99.90
16327;DHT22;34812;49.846;9.610;2022-10-18T01:57:59;13.50;99.90
16327;DHT22;34812;49.846;9.610;2022-10-18T01:59:21;13.50;99.90
16327;DHT22;34812;49.846;9.610;2022-10-18T02:00:30;13.60;99.90
16327;DHT22;34812;49.846;9.610;2022-10-18T02:01:42;13.50;99.90
16327;DHT22;34812;49.846;9.610;2022-10-18T02:02:50;13.50;99.90
16327;DHT22;34812;49.846;9.610;2022-10-18T02:03:55;13.50;99.90
16327;DHT22;34812;49.846;9.610;2022-10-18T02:05:02;13.60;99.90
16327;DHT22;34812;49.846;9.610;2022-10-18T02:06:07;13.50;99.90
16327;DHT22;34812;49.846;9.610;2022-10-18T02:07:15;13.50;99.90
16327;DHT22;34812;49.846;9.610;2022-10-18T02:08:26;13.50;99.90
16327;DHT22;34812;49.846;9.610;2022-10-18T02:09:34;13.50;99.90
16327;DHT22;34812;49.846;9.610;2022-10-18T02:10:41;13.40;99.90
16327;DHT22;34812;49.846;9.610;2022-10-18T02:11:45;13.40;99.90
16327;DHT22;34812;49.846;9.610;2022-10-18T02:12:48;13.40;99.90
16327;DHT22;34812;49.846;9.610;2022-10-18T02:13:52;13.40;99.90
16327;DHT22;34812;49.846;9.610;2022-10-18T02:14:55;13.40;99.90
16327;DHT22;34812;49.846;9.610;2022-10-18T02:16:00;13.40;99.90
16327;DHT22;34812;49.846;9.610;2022-10-18T02:17:07;13.40;99.90
16327;DHT22;34812;49.846;9.610;2022-10-18T02:18:13;13.40;99.90
16327;DHT22;34812;49.846;9.610;2022-10-18T02:19:20;13.50;99.90
16327;DHT22;34812;49.846;9.610;2022-10-18T02:20:27;13.50;99.90
16327;DHT22;34812;49.846;9.610;2022-10-18T02:21:30;13.50;99.90
16327;DHT22;34812;49.846;9.610;2022-10-18T02:22:34;13.50;99.90
16327;DHT22;34812;49.846;9.610;2022-10-18T02:23:37;13.50;99.90
16327;DHT22;34812;49.846;9.610;2022-10-18T02:24:43;13.50;99.90
16327;DHT22;34812;49.846;9.610;2022-10-18T02:25:45;13.40;99.90
16327;DHT22;34812;49.846;9.610;2022-10-18T02:26:47;13.40;99.90
16327;DHT22;34812;49.846;9.610;2022-10-18T02:27:48;13.40;99.90
16327;DHT22;34812;49.846;9.610;2022-10-18T02:28:50;13.40;99.90
16327;DHT22;34812;49.846;9.610;2022-10-18T02:29:51;13.40;99.90
16327;DHT22;34812;49.846;9.610;2022-10-18T02:31:01;13.40;99.90
16327;DHT22;34812;49.846;9.610;2022-10-18T02:32:10;13.40;99.90
16327;DHT22;34812;49.846;9.610;2022-10-18T02:33:16;13.50;99.90
16327;DHT22;34812;49.846;9.610;2022-10-18T02:34:20;13.50;99.90
16327;DHT22;34812;49.846;9.610;2022-10-18T02:35:26;13.50;99.90
16327;DHT22;34812;49.846;9.610;2022-10-18T02:36:32;13.50;99.90
16327;DHT22;34812;49.846;9.610;2022-10-18T02:37:37;13.50;99.90
16327;DHT22;34812;49.846;9.610;2022-10-18T02:38:40;13.50;99.90
16327;DHT22;34812;49.846;9.610;2022-10-18T02:39:44;13.60;99.90
16327;DHT22;34812;49.846;9.610;2022-10-18T02:40:46;13.60;99.90
16327;DHT22;34812;49.846;9.610;2022-10-18T02:41:48;13.60;99.90
16327;DHT22;34812;49.846;9.610;2022-10-18T02:42:50;13.60;99.90
16327;DHT22;34812;49.846;9.610;2022-10-18T02:43:54;13.70;99.90
16327;DHT22;34812;49.846;9.610;2022-10-18T02:44:54;13.70;99.90
16327;DHT22;34812;49.846;9.610;2022-10-18T02:45:56;13.60;99.90
16327;DHT22;34812;49.846;9.610;2022-10-18T02:46:57;13.60;99.90
16327;DHT22;34812;49.846;9.610;2022-10-18T02:48:00;13.60;99.90
16327;DHT22;34812;49.846;9.610;2022-10-18T02:49:01;13.60;99.90
16327;DHT22;34812;49.846;9.610;2022-10-18T02:50:03;13.60;99.90
16327;DHT22;34812;49.846;9.610;2022-10-18T02:51:04;13.60;99.90
16327;DHT22;34812;49.846;9.610;2022-10-18T02:52:06;13.60;99.90
16327;DHT22;34812;49.846;9.610;2022-10-18T02:53:06;13.60;99.90
16327;DHT22;34812;49.846;9.610;2022-10-18T02:54:08;13.60;99.90
16327;DHT22;34812;49.846;9.610;2022-10-18T02:55:09;13.60;99.90
16327;DHT22;34812;49.846;9.610;2022-10-18T02:56:11;13.50;99.90
16327;DHT22;34812;49.846;9.610;2022-10-18T02:57:12;13.50;99.90
16327;DHT22;34812;49.846;9.610;2022-10-18T02:58:14;13.50;99.90
16327;DHT22;34812;49.846;9.610;2022-10-18T02:59:15;13.50;99.90
16327;DHT22;34812;49.846;9.610;2022-10-18T03:00:17;13.50;99.90
16327;DHT22;34812;49.846;9.610;2022-10-18T03:01:17;13.60;99.90
16327;DHT22;34812;49.846;9.610;2022-10-18T03:02:19;13.60;99.90
16327;DHT22;34812;49.846;9.610;2022-10-18T03:03:21;13.60;99.90
16327;DHT22;34812;49.846;9.610;2022-10-18T03:04:23;13.60;99.90
16327;DHT22;34812;49.846;9.610;2022-10-18T03:05:24;13.70;99.90
16327;DHT22;34812;49.846;9.610;2022-10-18T03:06:25;13.70;99.90
16327;DHT22;34812;49.846;9.610;2022-10-18T03:07:26;13.60;99.90
16327;DHT22;34812;49.846;9.610;2022-10-18T03:08:28;13.70;99.90
16327;DHT22;34812;49.846;9.610;2022-10-18T03:09:28;13.70;99.90
16327;DHT22;34812;49.846;9.610;2022-10-18T03:10:30;13.60;99.90
16327;DHT22;34812;49.846;9.610;2022-10-18T03:11:31;13.70;99.90
16327;DHT22;34812;49.846;9.610;2022-10-18T03:12:33;13.70;99.90
16327;DHT22;34812;49.846;9.610;2022-10-18T03:13:34;13.70;99.90
16327;DHT22;34812;49.846;9.610;2022-10-18T03:14:35;13.70;99.90
16327;DHT22;34812;49.846;9.610;2022-10-18T03:15:36;13.70;99.90
16327;DHT22;34812;49.846;9.610;2022-10-18T03:16:38;13.60;99.90
16327;DHT22;34812;49.846;9.610;2022-10-18T03:17:39;13.60;99.90
16327;DHT22;34812;49.846;9.610;2022-10-18T03:18:42;13.60;99.90
16327;DHT22;34812;49.846;9.610;2022-10-18T03:19:43;13.60;99.90
16327;DHT22;34812;49.846;9.610;2022-10-18T03:20:45;13.60;99.90
16327;DHT22;34812;49.846;9.610;2022-10-18T03:21:45;13.60;99.90
16327;DHT22;34812;49.846;9.610;2022-10-18T03:22:47;13.70;99.90
16327;DHT22;34812;49.846;9.610;2022-10-18T03:23:48;13.70;99.90
16327;DHT22;34812;49.846;9.610;2022-10-18T03:24:49;13.70;99.90
16327;DHT22;34812;49.846;9.610;2022-10-18T03:25:50;13.80;99.90
16327;DHT22;34812;49.846;9.610;2022-10-18T03:26:52;13.70;99.90
16327;DHT22;34812;49.846;9.610;2022-10-18T03:27:53;13.70;99.90
16327;DHT22;34812;49.846;9.610;2022-10-18T03:28:55;13.70;99.90
16327;DHT22;34812;49.846;9.610;2022-10-18T03:29:55;13.70;99.90
16327;DHT22;34812;49.846;9.610;2022-10-18T03:30:59;13.80;99.90
16327;DHT22;34812;49.846;9.610;2022-10-18T03:32:00;13.80;99.90
16327;DHT22;34812;49.846;9.610;2022-10-18T03:33:02;13.70;99.90
16327;DHT22;34812;49.846;9.610;2022-10-18T03:34:04;13.70;99.90
16327;DHT22;34812;49.846;9.610;2022-10-18T03:35:07;13.70;99.90
16327;DHT22;34812;49.846;9.610;2022-10-18T03:36:08;13.80;99.90
16327;DHT22;34812;49.846;9.610;2022-10-18T03:37:10;13.70;99.90
16327;DHT22;34812;49.846;9.610;2022-10-18T03:38:12;13.70;99.90
16327;DHT22;34812;49.846;9.610;2022-10-18T03:39:13;13.80;99.90
16327;DHT22;34812;49.846;9.610;2022-10-18T03:40:15;13.80;99.90
16327;DHT22;34812;49.846;9.610;2022-10-18T03:41:16;13.70;99.90
16327;DHT22;34812;49.846;9.610;2022-10-18T03:42:17;13.70;99.90
16327;DHT22;34812;49.846;9.610;2022-10-18T03:43:18;13.70;99.90
16327;DHT22;34812;49.846;9.610;2022-10-18T03:44:20;13.70;99.90
16327;DHT22;34812;49.846;9.610;2022-10-18T03:45:21;13.60;99.90
16327;DHT22;34812;49.846;9.610;2022-10-18T03:46:22;13.70;99.90
16327;DHT22;34812;49.846;9.610;2022-10-18T03:47:23;13.70;99.90
16327;DHT22;34812;49.846;9.610;2022-10-18T03:48:25;13.70;99.90
16327;DHT22;34812;49.846;9.610;2022-10-18T03:49:27;13.70;99.90
16327;DHT22;34812;49.846;9.610;2022-10-18T03:50:29;13.80;99.90
16327;DHT22;34812;49.846;9.610;2022-10-18T03:51:30;13.80;99.90
16327;DHT22;34812;49.846;9.610;2022-10-18T03:52:31;13.80;99.90
16327;DHT22;34812;49.846;9.610;2022-10-18T03:53:32;13.80;99.90
16327;DHT22;34812;49.846;9.610;2022-10-18T03:54:34;13.80;99.90
16327;DHT22;34812;49.846;9.610;2022-10-18T03:55:36;13.70;99.90
16327;DHT22;34812;49.846;9.610;2022-10-18T03:56:38;13.80;99.90
16327;DHT22;34812;49.846;9.610;2022-10-18T03:57:38;13.80;99.90
16327;DHT22;34812;49.846;9.610;2022-10-18T03:58:40;13.80;99.90
16327;DHT22;34812;49.846;9.610;2022-10-18T03:59:42;13.80;99.90
16327;DHT22;34812;49.846;9.610;2022-10-18T04:00:43;13.80;99.90
16327;DHT22;34812;49.846;9.610;2022-10-18T04:01:44;13.80;99.90
16327;DHT22;34812;49.846;9.610;2022-10-18T04:02:45;13.80;99.90
16327;DHT22;34812;49.846;9.610;2022-10-18T04:03:47;13.70;99.90
16327;DHT22;34812;49.846;9.610;2022-10-18T04:04:49;13.70;99.90
16327;DHT22;34812;49.846;9.610;2022-10-18T04:05:51;13.70;99.90
16327;DHT22;34812;49.846;9.610;2022-10-18T04:06:52;13.70;99.90
16327;DHT22;34812;49.846;9.610;2022-10-18T04:07:54;13.70;99.90
16327;DHT22;34812;49.846;9.610;2022-10-18T04:08:55;13.70;99.90
16327;DHT22;34812;49.846;9.610;2022-10-18T04:09:56;13.70;99.90
16327;DHT22;34812;49.846;9.610;2022-10-18T04:10:57;13.70;99.90
16327;DHT22;34812;49.846;9.610;2022-10-18T04:11:59;13.70;99.90
16327;DHT22;34812;49.846;9.610;2022-10-18T04:13:00;13.70;99.90
16327;DHT22;34812;49.846;9.610;2022-10-18T04:14:01;13.70;99.90
16327;DHT22;34812;49.846;9.610;2022-10-18T04:15:03;13.80;99.90
16327;DHT22;34812;49.846;9.610;2022-10-18T04:16:05;13.70;99.90
16327;DHT22;34812;49.846;9.610;2022-10-18T04:17:05;13.70;99.90
16327;DHT22;34812;49.846;9.610;2022-10-18T04:18:07;13.80;99.90
16327;DHT22;34812;49.846;9.610;2022-10-18T04:19:08;13.70;99.90
16327;DHT22;34812;49.846;9.610;2022-10-18T04:20:11;13.70;99.90
16327;DHT22;34812;49.846;9.610;2022-10-18T04:21:12;13.70;99.90
16327;DHT22;34812;49.846;9.610;2022-10-18T04:22:14;13.60;99.90
16327;DHT22;34812;49.846;9.610;2022-10-18T04:23:15;13.60;99.90
16327;DHT22;34812;49.846;9.610;2022-10-18T04:24:16;13.60;99.90
16327;DHT22;34812;49.846;9.610;2022-10-18T04:25:17;13.70;99.90
16327;DHT22;34812;49.846;9.610;2022-10-18T04:26:19;13.70;99.90
16327;DHT22;34812;49.846;9.610;2022-10-18T04:27:19;13.70;99.90
16327;DHT22;34812;49.846;9.610;2022-10-18T04:28:21;13.70;99.90
16327;DHT22;34812;49.846;9.610;2022-10-18T04:29:22;13.70;99.90
16327;DHT22;34812;49.846;9.610;2022-10-18T04:30:24;13.70;99.90
16327;DHT22;34812;49.846;9.610;2022-10-18T04:31:25;13.70;99.90
16327;DHT22;34812;49.846;9.610;2022-10-18T04:32:26;13.70;99.90
16327;DHT22;34812;49.846;9.610;2022-10-18T04:33:28;13.70;99.90
16327;DHT22;34812;49.846;9.610;2022-10-18T04:34:30;13.70;99.90
16327;DHT22;34812;49.846;9.610;2022-10-18T04:35:32;13.70;99.90
16327;DHT22;34812;49.846;9.610;2022-10-18T04:36:34;13.70;99.90
16327;DHT22;34812;49.846;9.610;2022-10-18T04:37:35;13.70;99.90
16327;DHT22;34812;49.846;9.610;2022-10-18T04:38:36;13.70;99.90
16327;DHT22;34812;49.846;9.610;2022-10-18T04:39:37;13.80;99.90
16327;DHT22;34812;49.846;9.610;2022-10-18T04:40:39;13.80;99.90
16327;DHT22;34812;49.846;9.610;2022-10-18T04:41:40;13.80;99.90
16327;DHT22;34812;49.846;9.610;2022-10-18T04:42:41;13.80;99.90
16327;DHT22;34812;49.846;9.610;2022-10-18T04:43:42;13.80;99.90
16327;DHT22;34812;49.846;9.610;2022-10-18T04:44:44;13.90;99.90
16327;DHT22;34812;49.846;9.610;2022-10-18T04:45:45;13.80;99.90
16327;DHT22;34812;49.846;9.610;2022-10-18T04:46:47;13.80;99.90
16327;DHT22;34812;49.846;9.610;2022-10-18T04:47:48;13.80;99.90
16327;DHT22;34812;49.846;9.610;2022-10-18T04:48:50;13.70;99.90
16327;DHT22;34812;49.846;9.610;2022-10-18T04:49:50;13.80;99.90
16327;DHT22;34812;49.846;9.610;2022-10-18T04:50:53;13.80;99.90
16327;DHT22;34812;49.846;9.610;2022-10-18T04:51:54;13.80;99.90
16327;DHT22;34812;49.846;9.610;2022-10-18T04:52:56;13.80;99.90
16327;DHT22;34812;49.846;9.610;2022-10-18T04:53:57;13.80;99.90
16327;DHT22;34812;49.846;9.610;2022-10-18T04:54:58;13.80;99.90
16327;DHT22;34812;49.846;9.610;2022-10-18T04:55:59;13.80;99.90
16327;DHT22;34812;49.846;9.610;2022-10-18T04:57:01;13.80;99.90
16327;DHT22;34812;49.846;9.610;2022-10-18T04:58:02;13.80;99.90
16327;DHT22;34812;49.846;9.610;2022-10-18T04:59:03;13.80;99.90
16327;DHT22;34812;49.846;9.610;2022-10-18T05:00:05;13.80;99.90
16327;DHT22;34812;49.846;9.610;2022-10-18T05:01:07;13.80;99.90
16327;DHT22;34812;49.846;9.610;2022-10-18T05:02:08;13.80;99.90
16327;DHT22;34812;49.846;9.610;2022-10-18T05:03:12;13.80;99.90
16327;DHT22;34812;49.846;9.610;2022-10-18T05:04:13;13.80;99.90
16327;DHT22;34812;49.846;9.610;2022-10-18T05:05:14;13.80;99.90
16327;DHT22;34812;49.846;9.610;2022-10-18T05:06:16;13.80;99.90
16327;DHT22;34812;49.846;9.610;2022-10-18T05:07:18;13.80;99.90
16327;DHT22;34812;49.846;9.610;2022-10-18T05:08:19;13.80;99.90
16327;DHT22;34812;49.846;9.610;2022-10-18T05:09:21;13.80;99.90
16327;DHT22;34812;49.846;9.610;2022-10-18T05:10:24;13.70;99.90
16327;DHT22;34812;49.846;9.610;2022-10-18T05:11:25;13.70;99.90
16327;DHT22;34812;49.846;9.610;2022-10-18T05:12:26;13.70;99.90
16327;DHT22;34812;49.846;9.610;2022-10-18T05:13:28;13.70;99.90
16327;DHT22;34812;49.846;9.610;2022-10-18T05:14:29;13.70;99.90
16327;DHT22;34812;49.846;9.610;2022-10-18T05:15:30;13.70;99.90
16327;DHT22;34812;49.846;9.610;2022-10-18T05:16:31;13.70;99.90
16327;DHT22;34812;49.846;9.610;2022-10-18T05:17:33;13.70;99.90
16327;DHT22;34812;49.846;9.610;2022-10-18T05:18:34;13.60;99.90
16327;DHT22;34812;49.846;9.610;2022-10-18T05:19:35;13.70;99.90
16327;DHT22;34812;49.846;9.610;2022-10-18T05:20:36;13.60;99.90
16327;DHT22;34812;49.846;9.610;2022-10-18T05:21:39;13.60;99.90
16327;DHT22;34812;49.846;9.610;2022-10-18T05:22:40;13.60;99.90
16327;DHT22;34812;49.846;9.610;2022-10-18T05:23:42;13.60;99.90
16327;DHT22;34812;49.846;9.610;2022-10-18T05:24:43;13.70;99.90
16327;DHT22;34812;49.846;9.610;2022-10-18T05:25:44;13.70;99.90
16327;DHT22;34812;49.846;9.610;2022-10-18T05:26:45;13.70;99.90
16327;DHT22;34812;49.846;9.610;2022-10-18T05:27:47;13.70;99.90
16327;DHT22;34812;49.846;9.610;2022-10-18T05:28:48;13.70;99.90
16327;DHT22;34812;49.846;9.610;2022-10-18T05:29:50;13.70;99.90
16327;DHT22;34812;49.846;9.610;2022-10-18T05:30:50;13.70;99.90
16327;DHT22;34812;49.846;9.610;2022-10-18T05:31:52;13.70;99.90
16327;DHT22;34812;49.846;9.610;2022-10-18T05:32:53;13.70;99.90
16327;DHT22;34812;49.846;9.610;2022-10-18T05:33:55;13.70;99.90
16327;DHT22;34812;49.846;9.610;2022-10-18T05:34:55;13.70;99.90
16327;DHT22;34812;49.846;9.610;2022-10-18T05:35:57;13.70;99.90
16327;DHT22;34812;49.846;9.610;2022-10-18T05:37:00;13.70;99.90
16327;DHT22;34812;49.846;9.610;2022-10-18T05:38:02;13.60;99.90
16327;DHT22;34812;49.846;9.610;2022-10-18T05:39:04;13.60;99.90
16327;DHT22;34812;49.846;9.610;2022-10-18T05:40:07;13.60;99.90
16327;DHT22;34812;49.846;9.610;2022-10-18T05:41:08;13.60;99.90
16327;DHT22;34812;49.846;9.610;2022-10-18T05:42:10;13.60;99.90
16327;DHT22;34812;49.846;9.610;2022-10-18T05:43:11;13.60;99.90
16327;DHT22;34812;49.846;9.610;2022-10-18T05:44:12;13.60;99.90
16327;DHT22;34812;49.846;9.610;2022-10-18T05:45:13;13.60;99.90
16327;DHT22;34812;49.846;9.610;2022-10-18T05:46:15;13.70;99.90
16327;DHT22;34812;49.846;9.610;2022-10-18T05:47:15;13.60;99.90
16327;DHT22;34812;49.846;9.610;2022-10-18T05:48:17;13.60;99.90
16327;DHT22;34812;49.846;9.610;2022-10-18T05:49:18;13.70;99.90
16327;DHT22;34812;49.846;9.610;2022-10-18T05:50:20;13.60;99.90
16327;DHT22;34812;49.846;9.610;2022-10-18T05:51:21;13.60;99.90
16327;DHT22;34812;49.846;9.610;2022-10-18T05:52:24;13.60;99.90
16327;DHT22;34812;49.846;9.610;2022-10-18T05:53:26;13.60;99.90
16327;DHT22;34812;49.846;9.610;2022-10-18T05:54:27;13.60;99.90
16327;DHT22;34812;49.846;9.610;2022-10-18T05:55:28;13.60;99.90
16327;DHT22;34812;49.846;9.610;2022-10-18T05:56:29;13.60;99.90
16327;DHT22;34812;49.846;9.610;2022-10-18T05:57:31;13.70;99.90
16327;DHT22;34812;49.846;9.610;2022-10-18T05:58:32;13.60;99.90
16327;DHT22;34812;49.846;9.610;2022-10-18T05:59:33;13.60;99.90
16327;DHT22;34812;49.846;9.610;2022-10-18T06:00:35;13.60;99.90
16327;DHT22;34812;49.846;9.610;2022-10-18T06:01:38;13.60;99.90
16327;DHT22;34812;49.846;9.610;2022-10-18T06:02:39;13.60;99.90
16327;DHT22;34812;49.846;9.610;2022-10-18T06:03:41;13.50;99.90
16327;DHT22;34812;49.846;9.610;2022-10-18T06:04:42;13.50;99.90
16327;DHT22;34812;49.846;9.610;2022-10-18T06:05:43;13.50;99.90
16327;DHT22;34812;49.846;9.610;2022-10-18T06:06:44;13.50;99.90
16327;DHT22;34812;49.846;9.610;2022-10-18T06:07:47;13.50;99.90
16327;DHT22;34812;49.846;9.610;2022-10-18T06:08:48;13.50;99.90
16327;DHT22;34812;49.846;9.610;2022-10-18T06:09:50;13.50;99.90
16327;DHT22;34812;49.846;9.610;2022-10-18T06:10:52;13.50;99.90
16327;DHT22;34812;49.846;9.610;2022-10-18T06:11:53;13.40;99.90
16327;DHT22;34812;49.846;9.610;2022-10-18T06:12:54;13.50;99.90
16327;DHT22;34812;49.846;9.610;2022-10-18T06:13:55;13.40;99.90
16327;DHT22;34812;49.846;9.610;2022-10-18T06:14:57;13.50;99.90
16327;DHT22;34812;49.846;9.610;2022-10-18T06:15:58;13.50;99.90
16327;DHT22;34812;49.846;9.610;2022-10-18T06:17:00;13.50;99.90
16327;DHT22;34812;49.846;9.610;2022-10-18T06:18:00;13.50;99.90
16327;DHT22;34812;49.846;9.610;2022-10-18T06:19:02;13.60;99.90
16327;DHT22;34812;49.846;9.610;2022-10-18T06:20:04;13.50;99.90
16327;DHT22;34812;49.846;9.610;2022-10-18T06:21:07;13.50;99.90
16327;DHT22;34812;49.846;9.610;2022-10-18T06:22:08;13.50;99.90
16327;DHT22;34812;49.846;9.610;2022-10-18T06:23:11;13.50;99.90
16327;DHT22;34812;49.846;9.610;2022-10-18T06:24:12;13.50;99.90
16327;DHT22;34812;49.846;9.610;2022-10-18T06:25:13;13.60;99.90
16327;DHT22;34812;49.846;9.610;2022-10-18T06:26:14;13.50;99.90
16327;DHT22;34812;49.846;9.610;2022-10-18T06:27:16;13.50;99.90
16327;DHT22;34812;49.846;9.610;2022-10-18T06:28:17;13.50;99.90
16327;DHT22;34812;49.846;9.610;2022-10-18T06:29:19;13.50;99.90
16327;DHT22;34812;49.846;9.610;2022-10-18T06:30:20;13.50;99.90
16327;DHT22;34812;49.846;9.610;2022-10-18T06:31:21;13.50;99.90
16327;DHT22;34812;49.846;9.610;2022-10-18T06:32:22;13.50;99.90
16327;DHT22;34812;49.846;9.610;2022-10-18T06:33:24;13.50;99.90
16327;DHT22;34812;49.846;9.610;2022-10-18T06:34:25;13.50;99.90
16327;DHT22;34812;49.846;9.610;2022-10-18T06:35:26;13.50;99.90
16327;DHT22;34812;49.846;9.610;2022-10-18T06:36:27;13.50;99.90
16327;DHT22;34812;49.846;9.610;2022-10-18T06:37:29;13.50;99.90
16327;DHT22;34812;49.846;9.610;2022-10-18T06:38:31;13.60;99.90
16327;DHT22;34812;49.846;9.610;2022-10-18T06:39:33;13.60;99.90